Accueil
METAR-TAF:

METAR-TAF

Aéroports :

Aéroport international Saint-Gall-Altenrhein

Saint-Gall, Suisse

latitude: 47-29-06N, longitude: 009-33-43E, altitude: 398 m

Observation

Le bulletin a été fait il y a 29 minutes, à 09:50 UTC
Vent 1 kt de direction variable
Température 2°C
Humidité 87%
Pression 1022 hPa
Visibilité: 9000 m
Ciel couvert à une hauteur de 1400 ft

METAR: LSZR 180950Z VRB01KT 9000 OVC014 02/M00 Q1022 NOSIG RMK A

Heure: 11:19 (10:19 UTC)

Prévision

Le bulletin a été fait il y a 1 heure et 54 minutes, à 08:25 UTC
Prévision valable du 18 à 09 UTC au 18 à 18 UTC
Vent 3 kt de direction variable
Visibilité 10 km ou plus
Ciel couvert à une hauteur de 1300 ft
Evoluant progressivement
du 18 à 09 UTC au 18 à 12 UTC
Nuages fragmentés à une hauteur de 2000 ft

TAF: LSZR 180825Z 1809/1818 VRB03KT 9999 OVC013 BECMG 1809/1812 BKN020

Observations et prévisions météorologiques de plus de 4000 aéroports (messages METAR et TAF).

Les stations disponibles sont représentées par des disques jaunes et rouges sur la carte.

Passer la souris dessus pour voir le nom de la station.

Cliquer dessus pour voir les observations et prévisions météorologiques.

Pour changer de carte: cliquez sur les boutons verts avec une croix noire pour zoomer, sur le bouton vert avec un tiret pour effectuer un zoom arrière, ou sur les flèches vertes pour les cartes adjacentes.


METAR-TAF: